Time;durP1;ratioP1;P1;durP2;ratioP2;P2;SDS_P1;SDS_P2;PMS_P1;PMS_P2;Temp;Humidity;BMP_temperature;BMP_pressure;BME280_temperature;BME280_humidity;BME280_pressure;Samples;Min_cycle;Max_cycle;Signal;HPM_P1;HPM_P2
2022/07/12 00:02:05;;;;;;;0.10;0.10;;;;;;;21.75;53.01;102035.34;5137061;27;20070;-37
2022/07/12 00:04:31;;;;;;;0.10;0.10;;;;;;;21.76;53.02;102031.44;5132716;27;20046;-37
2022/07/12 00:06:57;;;;;;;0.10;0.10;;;;;;;21.76;52.98;102031.44;5133455;27;20429;-38
2022/07/12 00:09:22;;;;;;;0.10;0.10;;;;;;;21.78;52.92;102032.88;5139854;27;20047;-39
2022/07/12 00:11:49;;;;;;;0.10;0.10;;;;;;;21.78;52.83;102038.41;5134952;27;20046;-37
2022/07/12 00:14:14;;;;;;;0.10;0.10;;;;;;;21.76;53.00;102040.63;5133519;27;20108;-38
2022/07/12 00:16:40;;;;;;;0.10;0.10;;;;;;;21.76;52.87;102037.84;5134232;27;20047;-37
2022/07/12 00:19:06;;;;;;;0.10;0.10;;;;;;;21.78;52.87;102034.81;5128823;27;20472;-39
2022/07/12 00:21:32;;;;;;;0.10;0.10;;;;;;;21.76;52.99;102034.22;5132926;27;20054;-37
2022/07/12 00:23:58;;;;;;;0.10;0.10;;;;;;;21.75;53.02;102038.09;5132558;27;20055;-38
2022/07/12 00:26:23;;;;;;;0.10;0.10;;;;;;;21.76;53.04;102032.31;5133623;27;20077;-37
2022/07/12 00:28:49;;;;;;;0.10;0.10;;;;;;;21.75;53.02;102038.09;5137521;27;20036;-38
2022/07/12 00:31:14;;;;;;;0.10;0.10;;;;;;;21.76;52.97;102045.31;5140655;27;20039;-37
2022/07/12 00:33:40;;;;;;;0.10;0.10;;;;;;;21.77;53.11;102031.19;5137305;27;20413;-38
2022/07/12 00:36:06;;;;;;;0.10;0.10;;;;;;;21.75;52.97;102027.84;5138872;27;20031;-38
2022/07/12 00:38:32;;;;;;;0.10;0.10;;;;;;;21.77;52.93;102027.59;5141822;27;20040;-37
2022/07/12 00:40:58;;;;;;;0.10;0.10;;;;;;;21.77;52.90;102019.28;5136895;27;20396;-38
2022/07/12 00:43:23;;;;;;;0.10;0.10;;;;;;;21.75;52.99;102021.47;5121966;27;20124;-38
2022/07/12 00:45:49;;;;;;;0.10;0.10;;;;;;;21.76;52.91;102017.59;5135797;27;20108;-39
2022/07/12 00:48:17;;;;;;;0.10;0.10;;;;;;;21.75;53.02;102016.75;5134990;27;20057;-38
2022/07/12 00:50:45;;;;;;;0.10;0.10;;;;;;;21.76;52.92;102006.50;5119521;28;20043;-37
2022/07/12 00:53:12;;;;;;;0.10;0.10;;;;;;;21.75;52.90;101997.34;5123452;27;20043;-37
2022/07/12 00:55:38;;;;;;;0.10;0.10;;;;;;;21.77;52.91;102002.66;5140525;27;20083;-35
2022/07/12 00:58:03;;;;;;;0.10;0.10;;;;;;;21.76;52.91;101996.28;5137167;27;20427;-37
2022/07/12 01:00:29;;;;;;;0.10;0.10;;;;;;;21.78;52.96;101995.97;5138380;27;20035;-38
2022/07/12 01:02:56;;;;;;;0.10;0.10;;;;;;;21.76;52.85;101996.28;5105663;27;20070;-36
2022/07/12 01:05:22;;;;;;;0.10;0.10;;;;;;;21.77;52.87;101991.56;5137323;27;20078;-37
2022/07/12 01:07:47;;;;;;;0.10;0.10;;;;;;;21.75;53.08;101996.53;5139092;27;20078;-38
2022/07/12 01:10:13;;;;;;;0.10;0.10;;;;;;;21.77;53.00;101997.09;5140571;27;20078;-37
2022/07/12 01:12:39;;;;;;;0.10;0.10;;;;;;;21.75;53.14;101991.81;5140242;27;20396;-37
2022/07/12 01:15:06;;;;;;;0.10;0.10;;;;;;;21.76;53.00;101996.28;5140186;27;20035;-35
2022/07/12 01:17:31;;;;;;;0.10;0.10;;;;;;;21.75;52.89;101985.44;5136824;27;20090;-37
2022/07/12 01:19:58;;;;;;;0.10;0.10;;;;;;;21.74;53.02;101989.31;5137157;27;20421;-37
2022/07/12 01:22:29;;;;;;;0.10;0.10;;;;;;;21.75;53.01;101999.28;5120995;27;20138;-39
2022/07/12 01:24:55;;;;;;;0.10;0.10;;;;;;;21.78;52.92;101993.22;5119448;27;20126;-36
2022/07/12 01:27:21;;;;;;;0.10;0.10;;;;;;;21.76;52.96;101992.63;5119896;27;20074;-38
2022/07/12 01:29:47;;;;;;;0.10;0.10;;;;;;;21.76;52.96;101998.19;5142670;27;20043;-38
2022/07/12 01:32:29;;;;;;;0.10;0.10;;;;;;;21.77;52.93;101989.59;5139048;27;20489;-38
2022/07/12 01:34:57;;;;;;;0.10;0.10;;;;;;;21.76;52.96;101998.19;5120661;27;20173;-37
2022/07/12 01:37:24;;;;;;;0.17;0.17;;;;;;;21.75;52.92;102000.13;5123529;27;20043;-38
2022/07/12 01:39:53;;;;;;;0.10;0.10;;;;;;;21.74;52.97;102001.22;5116970;27;20080;-37
2022/07/12 01:42:20;;;;;;;0.20;0.20;;;;;;;21.75;52.97;102002.91;5116530;27;20151;-37
2022/07/12 01:44:45;;;;;;;0.20;0.20;;;;;;;21.76;53.00;102003.72;5132261;27;20089;-37
2022/07/12 01:47:11;;;;;;;0.10;0.10;;;;;;;21.74;52.92;101998.47;5133094;27;20039;-37
2022/07/12 01:49:37;;;;;;;0.10;0.10;;;;;;;21.76;52.94;102000.94;5136078;27;20047;-36
2022/07/12 01:52:04;;;;;;;0.10;0.10;;;;;;;21.77;52.99;102005.41;5138691;27;20095;-36
2022/07/12 01:54:29;;;;;;;0.10;0.10;;;;;;;21.75;53.01;102013.97;5135544;27;20469;-36
2022/07/12 01:56:55;;;;;;;0.10;0.10;;;;;;;21.74;53.08;102014.28;5136715;27;20130;-37
2022/07/12 01:59:21;;;;;;;0.20;0.20;;;;;;;21.74;53.01;102025.34;5133872;27;20039;-38
2022/07/12 02:01:48;;;;;;;0.10;0.10;;;;;;;21.76;53.16;102020.34;5119730;27;20070;-37
2022/07/12 02:04:17;;;;;;;0.10;0.10;;;;;;;21.75;53.07;102018.69;5139151;27;20087;-37
2022/07/12 02:06:44;;;;;;;0.10;0.10;;;;;;;21.72;53.04;102020.09;5137278;27;20088;-36
2022/07/12 02:09:12;;;;;;;0.10;0.10;;;;;;;21.74;53.04;102026.19;5133798;27;20143;-37
2022/07/12 02:11:38;;;;;;;0.10;0.10;;;;;;;21.75;53.01;102024.25;5138270;27;20071;-37
2022/07/12 02:14:03;;;;;;;0.10;0.10;;;;;;;21.74;52.98;102026.19;5117066;27;20133;-36
2022/07/12 02:16:29;;;;;;;0.13;0.13;;;;;;;21.72;53.08;102028.41;5135170;27;20051;-37
2022/07/12 02:18:55;;;;;;;0.10;0.10;;;;;;;21.75;52.98;102030.63;5137114;27;20043;-37
2022/07/12 02:21:21;;;;;;;0.15;0.15;;;;;;;21.74;52.94;102020.66;5137939;27;20071;-37
2022/07/12 02:23:46;;;;;;;0.10;0.10;;;;;;;21.75;53.02;102024.25;5136876;27;20039;-37
2022/07/12 02:26:12;;;;;;;0.10;0.10;;;;;;;21.75;53.02;102036.16;5137912;27;20039;-36
2022/07/12 02:28:38;;;;;;;0.10;0.10;;;;;;;21.74;53.04;102034.50;5132664;27;20050;-37
2022/07/12 02:31:03;;;;;;;0.10;0.10;;;;;;;21.75;53.07;102035.34;5138974;27;20388;-37
2022/07/12 02:33:29;;;;;;;0.10;0.10;;;;;;;21.75;52.93;102035.34;5139117;27;20092;-36
2022/07/12 02:35:55;;;;;;;0.20;0.20;;;;;;;21.73;53.01;102032.03;5137153;27;20058;-37
2022/07/12 02:38:21;;;;;;;0.10;0.10;;;;;;;21.72;52.99;102036.72;5137877;27;20046;-37
2022/07/12 02:40:54;;;;;;;0.10;0.10;;;;;;;21.76;52.94;102042.53;5138518;27;20078;-37
2022/07/12 02:43:24;;;;;;;0.10;0.10;;;;;;;21.74;53.03;102045.59;5133808;27;20433;-37
2022/07/12 02:45:51;;;;;;;0.10;0.10;;;;;;;21.76;53.01;102037.00;5135175;27;20039;-37
2022/07/12 02:48:17;;;;;;;0.13;0.13;;;;;;;21.75;52.98;102041.72;5118364;27;20867;-37
2022/07/12 02:50:43;;;;;;;0.20;0.20;;;;;;;21.74;52.95;102031.75;5138307;27;20078;-37
2022/07/12 02:53:09;;;;;;;0.10;0.10;;;;;;;21.75;53.01;102046.44;5136962;27;20076;-37
2022/07/12 02:55:36;;;;;;;0.10;0.10;;;;;;;21.77;52.90;102038.69;5141885;27;20700;-37
2022/07/12 02:58:02;;;;;;;0.10;0.10;;;;;;;21.76;53.09;102042.53;5134682;27;20483;-37
2022/07/12 03:00:28;;;;;;;0.10;0.10;;;;;;;21.73;53.01;102032.03;5134044;27;20070;-36
2022/07/12 03:02:54;;;;;;;0.10;0.10;;;;;;;21.75;52.93;102040.88;5113712;27;20075;-36
2022/07/12 03:05:20;;;;;;;0.10;0.10;;;;;;;21.74;52.96;102030.91;5135325;27;20422;-36
2022/07/12 03:07:46;;;;;;;0.10;0.10;;;;;;;21.74;53.07;102030.91;5135447;27;20119;-37
2022/07/12 03:10:12;;;;;;;0.10;0.10;;;;;;;21.75;53.02;102029.78;5140318;27;20500;-37
2022/07/12 03:12:38;;;;;;;0.10;0.10;;;;;;;21.75;52.89;102032.56;5120182;27;20047;-37
2022/07/12 03:15:05;;;;;;;0.10;0.10;;;;;;;21.74;52.95;102031.75;5133680;27;20091;-36
2022/07/12 03:17:32;;;;;;;0.10;0.10;;;;;;;21.74;52.92;102031.75;5140345;27;20433;-36
2022/07/12 03:19:58;;;;;;;0.10;0.10;;;;;;;21.74;52.99;102030.91;5118654;27;20437;-37
2022/07/12 03:22:23;;;;;;;0.10;0.10;;;;;;;21.74;53.06;102039.22;5134993;27;20481;-37
2022/07/12 03:24:49;;;;;;;0.20;0.20;;;;;;;21.75;52.95;102035.34;5120454;27;20045;-39
2022/07/12 03:27:15;;;;;;;0.10;0.10;;;;;;;21.74;52.96;102042.00;5117132;27;20035;-37
2022/07/12 03:29:41;;;;;;;0.10;0.10;;;;;;;21.74;53.00;102039.22;5134654;27;20043;-36
2022/07/12 03:32:07;;;;;;;0.10;0.10;;;;;;;21.76;52.94;102031.44;5139614;27;20395;-37
2022/07/12 03:34:33;;;;;;;0.10;0.10;;;;;;;21.76;52.89;102039.78;5133967;27;20047;-37
2022/07/12 03:36:58;;;;;;;0.10;0.10;;;;;;;21.73;53.17;102038.41;5139043;27;20042;-37
2022/07/12 03:39:24;;;;;;;0.10;0.10;;;;;;;21.75;53.23;102030.63;5135668;27;20088;-38
2022/07/12 03:41:50;;;;;;;0.20;0.20;;;;;;;21.76;53.02;102028.69;5133658;27;20050;-37
2022/07/12 03:44:15;;;;;;;0.10;0.10;;;;;;;21.76;52.82;102037.00;5135985;27;20119;-37
2022/07/12 03:46:41;;;;;;;0.10;0.10;;;;;;;21.75;52.96;102041.72;5136164;27;20046;-38
2022/07/12 03:49:07;;;;;;;0.10;0.10;;;;;;;21.75;52.95;102032.56;5137512;27;20043;-37
2022/07/12 03:51:33;;;;;;;0.10;0.10;;;;;;;21.72;53.02;102028.41;5120173;27;20388;-38
2022/07/12 03:53:58;;;;;;;0.10;0.10;;;;;;;21.73;52.90;102034.78;5136371;27;20047;-38
2022/07/12 03:59:10;;;;;;;0.10;0.10;;;;;;;21.73;53.22;102037.56;5120523;27;20457;-36
2022/07/12 04:01:35;;;;;;;0.10;0.10;;;;;;;21.74;53.07;102044.75;5135450;27;20050;-37
2022/07/12 04:04:02;;;;;;;0.10;0.10;;;;;;;21.74;53.04;102042.81;5132732;27;20050;-38
2022/07/12 04:06:28;;;;;;;0.10;0.10;;;;;;;21.74;53.13;102042.81;5139731;27;20040;-39
2022/07/12 04:08:54;;;;;;;0.10;0.10;;;;;;;21.73;52.99;102052.25;5142036;27;20201;-37
2022/07/12 04:11:19;;;;;;;0.10;0.10;;;;;;;21.76;52.93;102050.88;5117717;27;20039;-38
2022/07/12 04:13:45;;;;;;;0.10;0.10;;;;;;;21.75;52.96;102050.03;5143171;27;20092;-37
2022/07/12 04:16:12;;;;;;;0.10;0.10;;;;;;;21.73;52.93;102057.81;5134351;27;20468;-38
2022/07/12 04:18:38;;;;;;;0.10;0.10;;;;;;;21.75;52.88;102054.75;5125940;27;20735;-37
2022/07/12 04:21:04;;;;;;;0.10;0.10;;;;;;;21.75;53.06;102061.13;5143217;27;20042;-37
2022/07/12 04:23:30;;;;;;;0.10;0.10;;;;;;;21.75;53.03;102060.28;5136717;27;20047;-37
2022/07/12 04:25:55;;;;;;;0.10;0.10;;;;;;;21.76;53.05;102064.72;5139009;27;20095;-37
2022/07/12 04:28:21;;;;;;;0.10;0.10;;;;;;;21.74;52.94;102062.22;5142178;27;20051;-38
2022/07/12 04:30:48;;;;;;;0.10;0.10;;;;;;;21.76;52.97;102057.28;5137184;27;20051;-37
2022/07/12 04:33:14;;;;;;;0.20;0.20;;;;;;;21.74;53.06;102061.41;5137087;27;20043;-38
2022/07/12 04:35:40;;;;;;;0.10;0.10;;;;;;;21.73;53.07;102056.97;5137480;27;20051;-39
2022/07/12 04:38:07;;;;;;;0.10;0.10;;;;;;;21.76;52.89;102064.72;5135542;27;20461;-36
2022/07/12 04:40:32;;;;;;;0.10;0.10;;;;;;;21.76;53.01;102061.94;5119580;27;20082;-36
2022/07/12 04:42:58;;;;;;;0.10;0.10;;;;;;;21.74;53.00;102062.22;5133814;27;20112;-37
2022/07/12 04:45:24;;;;;;;0.10;0.10;;;;;;;21.75;52.74;102063.06;5139755;27;20434;-38
2022/07/12 04:47:49;;;;;;;0.10;0.10;;;;;;;21.74;52.95;102065.00;5142741;27;20042;-37
2022/07/12 04:50:15;;;;;;;0.10;0.10;;;;;;;21.75;52.90;102068.59;5139290;27;20177;-37
2022/07/12 04:52:41;;;;;;;0.10;0.10;;;;;;;21.75;52.93;102076.94;5137436;27;20043;-37
2022/07/12 04:55:07;;;;;;;0.10;0.10;;;;;;;21.75;52.86;102063.91;5139226;27;20184;-37
2022/07/12 04:57:32;;;;;;;0.10;0.10;;;;;;;21.76;52.85;102067.50;5135390;27;20039;-37
2022/07/12 04:59:58;;;;;;;0.10;0.10;;;;;;;21.77;52.88;102070.03;5146126;27;20042;-37
2022/07/12 05:02:24;;;;;;;0.20;0.20;;;;;;;21.75;52.92;102072.22;5134625;27;20047;-38
2022/07/12 05:04:49;;;;;;;0.10;0.10;;;;;;;21.56;53.58;102076.56;5142882;27;20197;-38
2022/07/12 05:07:15;;;;;;;0.10;0.10;;;;;;;21.60;53.47;102068.56;5138513;27;20125;-38
2022/07/12 05:09:41;;;;;;;0.10;0.10;;;;;;;21.70;53.21;102068.59;5139271;27;20138;-38
2022/07/12 05:12:06;;;;;;;0.10;0.10;;;;;;;21.73;53.08;102076.38;5137158;27;20045;-37
2022/07/12 05:14:32;;;;;;;0.10;0.10;;;;;;;21.74;53.03;102073.31;5138418;27;20042;-38
2022/07/12 05:16:58;;;;;;;0.10;0.10;;;;;;;21.76;52.92;102073.91;5135212;27;20069;-38
2022/07/12 05:19:24;;;;;;;0.10;0.10;;;;;;;21.75;52.98;102077.75;5137230;27;20045;-38
2022/07/12 05:21:50;;;;;;;0.10;0.10;;;;;;;21.73;53.02;102077.22;5140037;27;20042;-38
2022/07/12 05:24:15;;;;;;;0.10;0.10;;;;;;;21.75;53.08;102076.94;5136822;27;20047;-36
2022/07/12 05:26:41;;;;;;;0.10;0.10;;;;;;;21.75;53.01;102063.91;5140574;27;20038;-38
2022/07/12 05:29:07;;;;;;;0.10;0.10;;;;;;;21.74;53.09;102062.22;5140075;27;20047;-37
2022/07/12 05:31:33;;;;;;;0.10;0.10;;;;;;;21.75;53.14;102065.84;5139625;27;20047;-37
2022/07/12 05:33:59;;;;;;;0.10;0.10;;;;;;;21.76;53.01;102073.91;5117611;27;20099;-38
2022/07/12 05:36:25;;;;;;;0.10;0.10;;;;;;;21.74;53.00;102070.56;5117568;27;20085;-38
2022/07/12 05:38:51;;;;;;;0.10;0.10;;;;;;;21.74;53.11;102072.50;5139298;27;20363;-38
2022/07/12 05:41:17;;;;;;;0.10;0.10;;;;;;;21.75;53.02;102068.59;5133969;27;20046;-39
2022/07/12 05:43:43;;;;;;;0.10;0.10;;;;;;;21.74;53.06;102075.28;5133901;27;20049;-38
2022/07/12 05:46:09;;;;;;;0.10;0.10;;;;;;;21.73;53.12;102068.06;5136720;27;20074;-38
2022/07/12 05:48:36;;;;;;;0.10;0.10;;;;;;;21.75;53.06;102071.38;5123418;27;20437;-38
2022/07/12 05:53:48;;;;;;;0.10;0.10;;;;;;;21.73;53.07;102068.06;5119541;27;20072;-38
2022/07/12 05:56:14;;;;;;;0.10;0.10;;;;;;;21.75;53.07;102068.59;5135753;27;20126;-37
2022/07/12 05:58:40;;;;;;;0.10;0.10;;;;;;;21.73;53.04;102070.84;5132846;27;20043;-37
2022/07/12 06:01:06;;;;;;;0.10;0.10;;;;;;;21.73;52.82;102068.88;5137731;27;20035;-37
2022/07/12 06:03:32;;;;;;;0.10;0.10;;;;;;;21.76;53.05;102073.03;5137123;27;20138;-37
2022/07/12 06:05:58;;;;;;;0.10;0.10;;;;;;;21.74;53.03;102069.72;5121725;27;20039;-38
2022/07/12 06:08:24;;;;;;;0.20;0.20;;;;;;;21.73;53.08;102076.38;5134972;27;20093;-37
2022/07/12 06:10:50;;;;;;;0.10;0.10;;;;;;;21.73;53.01;102079.16;5135365;27;20038;-38
2022/07/12 06:13:15;;;;;;;0.10;0.10;;;;;;;21.73;53.16;102079.97;5118017;27;20043;-37
2022/07/12 06:15:41;;;;;;;0.10;0.10;;;;;;;21.75;53.06;102082.47;5134424;27;20229;-36
2022/07/12 06:18:07;;;;;;;0.10;0.10;;;;;;;21.75;52.96;102080.53;5137505;27;20035;-38
2022/07/12 06:20:32;;;;;;;0.10;0.10;;;;;;;21.75;53.03;102090.78;5137128;27;20141;-37
2022/07/12 06:22:58;;;;;;;0.10;0.10;;;;;;;21.76;53.00;102095.22;5112145;27;21319;-37
2022/07/12 06:25:24;;;;;;;0.10;0.10;;;;;;;21.74;53.02;102103.81;5135103;27;20052;-37
2022/07/12 06:28:09;;;;;;;0.10;0.10;;;;;;;21.75;53.06;102113.81;5122397;27;20050;-37
2022/07/12 06:30:35;;;;;;;0.10;0.10;;;;;;;21.73;52.97;102112.41;5135018;27;20097;-37
2022/07/12 06:33:01;;;;;;;0.13;0.13;;;;;;;21.72;53.05;102122.69;5135782;27;20050;-37
2022/07/12 06:35:28;;;;;;;0.10;0.10;;;;;;;21.75;53.11;102126.84;5137977;27;20046;-37
2022/07/12 06:37:53;;;;;;;0.10;0.10;;;;;;;21.74;53.11;102125.19;5135161;27;20123;-37
2022/07/12 06:40:19;;;;;;;0.13;0.13;;;;;;;21.75;53.09;102127.66;5138560;27;20051;-35
2022/07/12 06:42:45;;;;;;;0.10;0.10;;;;;;;21.72;53.04;102128.22;5133818;27;20071;-36
2022/07/12 06:45:10;;;;;;;0.10;0.10;;;;;;;21.75;53.00;102138.75;5139417;27;20043;-37
2022/07/12 06:47:36;;;;;;;0.10;0.10;;;;;;;21.78;53.00;102148.50;5136550;27;20039;-36
2022/07/12 06:50:03;;;;;;;0.10;0.10;;;;;;;21.76;53.02;102136.81;5136941;27;20050;-37
2022/07/12 06:52:29;;;;;;;0.10;0.10;;;;;;;21.75;52.98;102143.47;5118537;27;20486;-36
2022/07/12 06:54:57;;;;;;;0.10;0.10;;;;;;;21.74;53.00;102144.59;5135080;27;20046;-37
2022/07/12 06:57:23;;;;;;;0.10;0.10;;;;;;;21.74;52.99;102150.97;5136605;27;20162;-37
2022/07/12 06:59:48;;;;;;;0.10;0.10;;;;;;;21.77;53.00;102139.34;5138029;27;20163;-39
2022/07/12 07:02:15;;;;;;;0.10;0.10;;;;;;;21.76;52.90;102146.00;5134440;27;20047;-37
2022/07/12 07:04:41;;;;;;;0.10;0.10;;;;;;;21.79;52.99;102141.84;5120605;27;20047;-36
2022/07/12 07:07:06;;;;;;;0.10;0.10;;;;;;;21.76;52.94;102142.38;5120283;27;20041;-37
2022/07/12 07:09:33;;;;;;;0.10;0.10;;;;;;;21.75;53.00;102137.94;5137115;27;20039;-37
2022/07/12 07:12:00;;;;;;;0.10;0.10;;;;;;;21.76;53.06;102129.38;5137518;27;20517;-37
2022/07/12 07:14:25;;;;;;;0.10;0.10;;;;;;;21.76;52.84;102134.03;5137363;27;20477;-38
2022/07/12 07:16:53;;;;;;;0.10;0.10;;;;;;;21.77;52.90;102130.19;5134900;27;20043;-37
2022/07/12 07:19:19;;;;;;;0.10;0.10;;;;;;;21.75;52.94;102129.59;5140694;27;20119;-36
2022/07/12 07:21:48;;;;;;;0.10;0.10;;;;;;;21.75;52.91;102146.25;5132328;27;20126;-38
2022/07/12 07:24:14;;;;;;;0.10;0.10;;;;;;;21.77;53.00;102144.06;5122479;27;20043;-37
2022/07/12 07:26:39;;;;;;;0.10;0.10;;;;;;;21.76;53.04;102142.38;5133961;27;20061;-38
2022/07/12 07:31:50;;;;;;;0.10;0.10;;;;;;;21.77;52.96;102152.38;5119905;27;20144;-37
2022/07/12 07:34:16;;;;;;;0.10;0.10;;;;;;;21.77;52.78;102150.44;5136703;27;20055;-37
2022/07/12 07:36:42;;;;;;;0.10;0.10;;;;;;;21.75;52.99;102144.31;5136827;27;20039;-37
2022/07/12 07:39:08;;;;;;;0.10;0.10;;;;;;;21.75;52.97;102151.78;5139034;27;20039;-37
2022/07/12 07:41:34;;;;;;;0.10;0.10;;;;;;;21.76;52.82;102151.53;5123193;27;20087;-37
2022/07/12 07:43:59;;;;;;;0.10;0.10;;;;;;;21.76;52.92;102157.09;5139302;27;20046;-37
2022/07/12 07:46:25;;;;;;;0.10;0.10;;;;;;;21.76;52.80;102150.69;5141169;27;20093;-36
2022/07/12 07:48:51;;;;;;;0.10;0.10;;;;;;;21.76;53.02;102148.78;5137600;27;20412;-38
2022/07/12 07:51:16;;;;;;;0.10;0.10;;;;;;;21.77;52.88;102144.88;5139302;27;20043;-37
2022/07/12 07:53:42;;;;;;;0.10;0.10;;;;;;;21.77;52.95;102150.44;5121988;27;20061;-35
2022/07/12 07:56:08;;;;;;;0.10;0.10;;;;;;;21.77;52.79;102155.97;5139227;27;20042;-36
2022/07/12 07:58:33;;;;;;;0.10;0.10;;;;;;;21.76;52.97;102151.53;5137488;27;20096;-37
2022/07/12 08:00:59;;;;;;;0.10;0.10;;;;;;;21.76;52.83;102156.22;5118379;27;20043;-37
2022/07/12 08:03:25;;;;;;;0.10;0.10;;;;;;;21.78;52.83;102148.50;5136842;27;20039;-36
2022/07/12 08:05:51;;;;;;;0.10;0.10;;;;;;;21.77;52.87;102153.22;5140919;27;20046;-37
2022/07/12 08:08:17;;;;;;;0.10;0.10;;;;;;;21.77;52.85;102141.28;5139180;27;20050;-37
2022/07/12 08:10:43;;;;;;;0.10;0.10;;;;;;;21.77;52.89;102158.75;5141624;27;20448;-38
2022/07/12 08:13:09;;;;;;;0.10;0.10;;;;;;;21.76;52.84;102148.78;5141816;27;20548;-37
2022/07/12 08:15:35;;;;;;;0.10;0.10;;;;;;;21.78;52.89;102142.94;5118061;27;20136;-37
2022/07/12 08:18:01;;;;;;;0.10;0.10;;;;;;;21.76;53.15;102147.91;5119618;27;20062;-37
2022/07/12 08:20:27;;;;;;;0.10;0.10;;;;;;;21.74;52.82;102150.97;5138269;27;20039;-37
2022/07/12 08:23:12;;;;;;;0.10;0.10;;;;;;;21.76;52.84;102146.00;5135591;27;20390;-35
2022/07/12 08:25:38;;;;;;;0.10;0.10;;;;;;;21.76;52.85;102147.91;5137580;27;20126;-38
2022/07/12 08:28:03;;;;;;;0.10;0.10;;;;;;;21.76;52.99;102143.22;5121659;27;20050;-37
2022/07/12 08:30:29;;;;;;;0.10;0.10;;;;;;;21.77;52.65;102144.88;5123721;27;20051;-37
2022/07/12 08:32:55;;;;;;;0.10;0.10;;;;;;;21.78;52.91;102137.41;5141346;27;20039;-38
2022/07/12 08:35:20;;;;;;;0.10;0.10;;;;;;;21.77;52.57;102136.56;5137838;27;20042;-37
2022/07/12 08:37:46;;;;;;;0.10;0.10;;;;;;;21.78;52.83;102129.09;5140880;27;20042;-37
2022/07/12 08:40:12;;;;;;;0.10;0.10;;;;;;;21.79;52.76;102134.34;5139463;27;20465;-38
2022/07/12 08:42:41;;;;;;;0.10;0.10;;;;;;;21.79;52.81;102127.97;5134111;27;20040;-37
2022/07/12 08:45:08;;;;;;;0.10;0.10;;;;;;;21.79;52.79;102126.03;5116823;27;20082;-37
2022/07/12 08:47:33;;;;;;;0.10;0.10;;;;;;;21.78;52.73;102124.38;5136986;27;20080;-38
2022/07/12 08:50:17;;;;;;;0.10;0.10;;;;;;;21.77;52.75;102119.09;5138685;27;20099;-37
2022/07/12 08:52:45;;;;;;;0.10;0.10;;;;;;;21.78;52.80;102118.81;5139682;27;20089;-37
2022/07/12 08:55:16;;;;;;;;;;;;;;;21.76;52.74;102115.50;5146258;27;20488;-38
2022/07/12 08:57:42;;;;;;;0.10;0.10;;;;;;;21.77;52.84;102122.69;5119941;27;20349;-39
2022/07/12 09:00:08;;;;;;;0.10;0.10;;;;;;;21.79;52.77;102119.66;5138401;27;20043;-36
2022/07/12 09:02:43;;;;;;;0.10;0.10;;;;;;;21.80;52.77;102115.75;5134119;27;20084;-36
2022/07/12 09:05:10;;;;;;;0.15;0.15;;;;;;;21.81;52.79;102116.63;5135343;27;20109;-37
2022/07/12 09:07:37;;;;;;;0.10;0.10;;;;;;;21.81;52.56;102119.41;5138861;27;20180;-38
2022/07/12 09:10:04;;;;;;;0.10;0.10;;;;;;;21.79;52.89;102114.09;5118517;27;20081;-36
2022/07/12 09:12:30;;;;;;;0.10;0.10;;;;;;;21.79;52.73;102112.16;5118420;27;20083;-38
2022/07/12 09:15:10;;;;;;;0.10;0.10;;;;;;;21.76;52.95;102107.19;5138741;27;20085;-36
2022/07/12 09:17:36;;;;;;;0.10;0.10;;;;;;;21.77;52.61;102103.28;5103505;27;20185;-37
2022/07/12 09:20:03;;;;;;;0.13;0.13;;;;;;;21.78;52.63;102113.28;5141414;27;20039;-38
2022/07/12 09:22:29;;;;;;;0.10;0.10;;;;;;;21.77;52.79;102117.16;5137617;27;20066;-35
2022/07/12 09:24:54;;;;;;;0.10;0.10;;;;;;;21.77;52.76;102110.78;5141204;27;20051;-37
2022/07/12 09:27:27;;;;;;;0.10;0.10;;;;;;;21.77;52.82;102108.00;5138507;27;20054;-38
2022/07/12 09:29:52;;;;;;;0.10;0.10;;;;;;;21.78;52.72;102120.75;5145746;27;20047;-36
2022/07/12 09:38:07;;;;;;;0.10;0.10;;;;;;;21.76;52.75;102121.03;5127054;27;20082;-38
2022/07/12 09:40:33;;;;;;;0.10;0.10;;;;;;;21.77;52.77;102121.88;5102624;27;20083;-38
2022/07/12 09:42:58;;;;;;;0.10;0.10;;;;;;;21.78;52.65;102120.75;5134881;27;20086;-37
2022/07/12 09:45:25;;;;;;;0.10;0.10;;;;;;;21.79;52.68;102120.47;5140367;27;20042;-36
2022/07/12 09:47:51;;;;;;;0.10;0.10;;;;;;;21.78;52.79;102118.81;5136990;27;20466;-39
2022/07/12 09:50:17;;;;;;;0.10;0.10;;;;;;;21.77;52.63;102108.84;5119874;27;20431;-38
2022/07/12 09:52:45;;;;;;;0.10;0.10;;;;;;;21.78;52.83;102126.31;5137600;27;20510;-37
2022/07/12 09:55:11;;;;;;;0.10;0.10;;;;;;;21.77;52.67;102119.94;5137227;27;20476;-37
2022/07/12 09:57:39;;;;;;;0.10;0.10;;;;;;;21.78;52.69;102113.28;5140213;27;20072;-37
2022/07/12 10:00:08;;;;;;;0.20;0.20;;;;;;;21.81;52.54;102114.69;5137868;27;20078;-36
2022/07/12 10:02:35;;;;;;;0.10;0.10;;;;;;;21.81;52.56;102114.69;5140025;27;20071;-39
2022/07/12 10:05:02;;;;;;;0.10;0.10;;;;;;;21.78;52.62;102124.38;5136207;27;20051;-37
2022/07/12 10:07:28;;;;;;;0.20;0.20;;;;;;;21.79;52.67;102122.41;5136153;27;20133;-38
2022/07/12 10:09:54;;;;;;;0.10;0.10;;;;;;;21.78;52.67;102127.13;5135846;27;20302;-37
2022/07/12 10:12:21;;;;;;;0.10;0.10;;;;;;;21.79;52.69;102114.94;5138446;27;20069;-36
2022/07/12 10:14:49;;;;;;;0.20;0.20;;;;;;;21.79;52.65;102114.09;5132764;27;20496;-37
2022/07/12 10:17:21;;;;;;;0.10;0.10;;;;;;;21.79;52.67;102116.88;5118779;27;20160;-37
2022/07/12 10:19:47;;;;;;;0.10;0.10;;;;;;;21.78;52.69;102110.50;5119999;27;20464;-38
2022/07/12 10:22:21;;;;;;;0.10;0.10;;;;;;;21.78;52.75;102118.00;5137132;27;20046;-37
2022/07/12 10:24:48;;;;;;;0.10;0.10;;;;;;;21.79;52.70;102114.94;5116831;27;20074;-35
2022/07/12 10:30:16;;;;;;;0.10;0.10;;;;;;;21.80;52.65;102110.22;5178772;27;20624;-38
2022/07/12 10:32:44;;;;;;;0.10;0.10;;;;;;;21.79;52.78;102112.16;5129505;27;20129;-40
2022/07/12 10:35:19;;;;;;;0.20;0.20;;;;;;;21.78;52.62;102116.03;5144736;27;20319;-38
2022/07/12 10:38:15;;;;;;;0.10;0.10;;;;;;;21.77;52.65;102106.06;5164403;27;20039;-40
2022/07/12 10:40:45;;;;;;;0.10;0.10;;;;;;;21.77;52.86;102100.53;5148109;27;20464;-38
2022/07/12 10:45:48;;;;;;;0.10;0.10;;;;;;;21.79;52.63;102101.06;5167039;27;20202;-38
2022/07/12 10:50:55;;;;;;;0.20;0.20;;;;;;;21.78;52.69;102091.09;5174526;27;20197;-38
2022/07/12 10:53:25;;;;;;;0.10;0.10;;;;;;;21.79;52.58;102100.25;5150409;27;20108;-37
2022/07/12 10:56:20;;;;;;;0.10;0.10;;;;;;;21.81;52.61;102098.03;5124557;27;20477;-38
2022/07/12 10:58:55;;;;;;;0.10;0.10;;;;;;;21.77;52.74;102094.97;5119624;27;20047;-38
2022/07/12 11:01:23;;;;;;;0.10;0.10;;;;;;;21.80;52.68;102093.59;5153157;27;20489;-37
2022/07/12 11:03:52;;;;;;;0.10;0.10;;;;;;;21.79;52.65;102103.00;5151776;27;20445;-38
2022/07/12 11:06:20;;;;;;;0.10;0.10;;;;;;;21.78;52.69;102099.41;5136236;27;20465;-39
2022/07/12 11:08:53;;;;;;;0.10;0.10;;;;;;;21.79;52.71;102097.47;5150314;27;20381;-38
2022/07/12 11:11:19;;;;;;;0.10;0.10;;;;;;;21.79;52.69;102103.00;5131527;27;20097;-39
2022/07/12 11:13:45;;;;;;;0.10;0.10;;;;;;;21.79;52.68;102103.84;5134575;27;20074;-38
2022/07/12 11:16:11;;;;;;;0.10;0.10;;;;;;;21.78;52.71;102102.19;5137493;27;21041;-37
2022/07/12 11:18:37;;;;;;;0.10;0.10;;;;;;;21.75;52.75;102090.78;5154437;27;20090;-37
2022/07/12 11:21:04;;;;;;;0.10;0.10;;;;;;;21.77;52.65;102092.19;5151974;27;20039;-37
2022/07/12 11:23:30;;;;;;;0.17;0.17;;;;;;;21.76;52.66;102085.00;5153200;27;20496;-37
2022/07/12 11:25:57;;;;;;;0.10;0.10;;;;;;;21.77;52.78;102078.34;5139780;27;20082;-38
2022/07/12 11:28:23;;;;;;;0.10;0.10;;;;;;;21.77;52.71;102072.78;5154305;27;20122;-37
2022/07/12 11:30:51;;;;;;;0.10;0.10;;;;;;;21.78;52.73;102070.84;5154871;27;20101;-37
2022/07/12 11:33:17;;;;;;;0.20;0.20;;;;;;;21.77;52.67;102078.34;5149822;27;20457;-36
2022/07/12 11:35:45;;;;;;;0.10;0.10;;;;;;;21.79;52.57;102069.75;5151581;27;20078;-38
2022/07/12 11:38:11;;;;;;;;;;;;;;;21.81;52.53;102069.50;5117318;27;20128;-37
2022/07/12 11:40:37;;;;;;;0.10;0.10;;;;;;;21.78;52.65;102074.44;5149929;27;19972;-38
2022/07/12 11:43:04;;;;;;;0.20;0.20;;;;;;;21.76;52.67;102071.13;5118085;27;20054;-37
2022/07/12 11:45:32;;;;;;;0.20;0.20;;;;;;;21.79;52.67;102073.34;5128446;27;20523;-37
2022/07/12 11:48:01;;;;;;;0.10;0.10;;;;;;;21.81;52.59;102056.44;5128248;27;20058;-37